Noumea, New Caledonia

5:02 AM NCT on October 02, 2014 (GMT +1100)
Port Moselle | Change Station
CLOSE
Current Station
Personal Weather Station
Location: Nouméa, PROVINCE SUD
Elevation: 33 ft
Nearby Weather Stations

Elev 33 ft 22.28 °S, 166.44 °E | Updated 1 minute ago

Mostly Cloudy
Mostly Cloudy
65.5 °F
Feels Like 65.5 °F
N
2.0
Wind Variable Wind from ENE
Gusts 3.0 mph

Today
High -- | Low -- °F
--% Chance of Precip.
Yesterday
High -- | Low -- °F
Precip. -- in
5:34 AM 5:53 PM
Waxing Crescent, 49% visible
Pressure 29.98 in
Visibility 6.2 miles
Clouds Mostly Cloudy 5800 ft
Mostly Cloudy 14000 ft
Dew Point 58 °F
Humidity 78%
Rainfall 0.00 in
Snow Depth Not available.
UV 0 out of 12
Pollen Not available.
Air Quality Not available.
Flu Activity Not available.
METAR NWWW 011800Z AUTO VRB02KT 9999 BKN058 BKN140 13/10 Q1015

More Conditions Fewer Conditions

Pressure 29.98 in
Visibility 6.2 miles
Clouds Mostly Cloudy 5800 ft
Mostly Cloudy 14000 ft
Dew Point 58 °F
Humidity 78%
Rainfall 0.00 in
Snow Depth Not available.
UV 0 out of 12
Pollen Not available.
Air Quality Not available.
Flu Activity Not available.
METAR NWWW 011800Z AUTO VRB02KT 9999 BKN058 BKN140 13/10 Q1015

More Conditions Fewer Conditions

10-Day Weather Forecast

Almanac

Astronomy

Oct. 02, 2014 Rise Set
Actual Time 5:34 AM NCT 5:53 PM NCT
Civil Twilight 5:12 AM NCT 6:15 PM NCT
Nautical Twilight 4:46 AM NCT 6:41 PM NCT
Astronomical Twilight 4:19 AM NCT 7:08 PM NCT
Moon 11:30 AM NCT (10/2) 12:04 AM NCT (10/2)
Length of Visible Light 13h 03m
Length of Day
12h 18m
Tomorrow will be 1m 18s longer.
Waxing Crescent, 49% of the Moon is Illuminated
Oct 1
Waxing Crescent
Oct 1
First Quarter
Oct 8
Full
Oct 15
Last Quarter
Oct 23
New

Yesterday's Extremes

Country Highs Country Lows

Community

WunderPhotos

Upload Photos

1,758,005 photos uploaded!

WunderBlogs® & News

By Dr. Jeff Masters
Director of Meteorology, Weather Underground
By Kari Strenfel
Meteorologist, Weather Underground
By Christopher C. Burt
Weather Historian, Weather Underground
October 1, 2014
October 1, 2014
October 1, 2014

Nearby

Snow Depth

Not available.

Earthquake Activity

City Distance Mag. Time & Date
No recent earthquake activity has been reported nearby.
Minimum magnitude displayed is 2.5.

Coastal Water Temperatures

Place Temperature
No Stations Reporting

Nearby Weather Stations